Time;durP1;ratioP1;P1;durP2;ratioP2;P2;SDS_P1;SDS_P2;PMS_P1;PMS_P2;Temp;Humidity;BMP_temperature;BMP_pressure;BME280_temperature;BME280_humidity;BME280_pressure;Samples;Min_cycle;Max_cycle;Signal;HPM_P1;HPM_P2
2022/01/29 00:00:37;;;;;;;30.88;13.60;;;7.00;99.90;;;;;;6070196;23;20033;-80
2022/01/29 00:03:03;;;;;;;37.47;13.70;;;7.10;99.90;;;;;;6095046;23;20014;-81
2022/01/29 00:05:29;;;;;;;30.90;13.15;;;7.10;99.90;;;;;;6094725;23;20015;-81
2022/01/29 00:07:54;;;;;;;30.38;12.55;;;7.40;99.90;;;;;;6096489;23;20433;-81
2022/01/29 00:10:20;;;;;;;29.40;12.82;;;7.20;99.90;;;;;;6094700;23;20386;-81
2022/01/29 00:12:47;;;;;;;32.92;12.70;;;7.20;99.90;;;;;;6070632;23;20037;-81
2022/01/29 00:15:13;;;;;;;36.33;13.10;;;7.20;99.90;;;;;;6046840;23;20090;-81
2022/01/29 00:17:39;;;;;;;34.05;12.27;;;7.20;99.90;;;;;;6070193;23;20429;-76
2022/01/29 00:20:05;;;;;;;37.33;12.63;;;7.20;99.90;;;;;;6071310;23;20405;-76
2022/01/29 00:22:31;;;;;;;36.45;12.63;;;7.20;99.90;;;;;;6072244;23;20341;-76
2022/01/29 00:24:58;;;;;;;34.35;12.75;;;7.30;99.90;;;;;;6096106;23;20014;-76
2022/01/29 00:27:26;;;;;;;38.45;12.95;;;7.30;99.90;;;;;;6048370;23;20337;-76
2022/01/29 00:29:52;;;;;;;33.42;12.77;;;7.30;99.90;;;;;;6072776;23;20014;-76
2022/01/29 00:32:18;;;;;;;30.75;13.32;;;7.30;99.90;;;;;;6071821;23;20018;-76
2022/01/29 00:34:44;;;;;;;34.25;12.38;;;7.50;99.90;;;;;;6096112;23;20022;-76
2022/01/29 00:37:10;;;;;;;36.58;13.43;;;7.30;99.90;;;;;;6072188;23;20053;-76
2022/01/29 00:39:36;;;;;;;30.42;12.95;;;7.30;99.90;;;;;;6072238;23;20054;-76
2022/01/29 00:42:03;;;;;;;35.13;13.80;;;7.90;99.90;;;;;;6048273;23;20026;-76
2022/01/29 00:44:29;;;;;;;34.58;13.35;;;7.30;99.90;;;;;;6095933;23;20093;-76
2022/01/29 00:46:55;;;;;;;29.65;12.90;;;7.90;99.90;;;;;;6024512;23;20453;-76
2022/01/29 00:49:21;;;;;;;35.70;13.68;;;7.30;99.90;;;;;;6071894;23;20033;-77
2022/01/29 00:51:46;;;;;;;28.55;13.35;;;7.30;99.90;;;;;;6096113;23;20018;-74
2022/01/29 00:54:15;;;;;;;36.97;13.43;;;7.30;99.90;;;;;;6049018;23;20018;-75
2022/01/29 00:56:41;;;;;;;35.55;13.98;;;7.30;99.90;;;;;;6071985;23;20014;-76
2022/01/29 00:59:07;;;;;;;28.83;13.73;;;7.30;99.90;;;;;;6072016;23;20015;-75
2022/01/29 01:01:33;;;;;;;31.77;13.90;;;7.40;99.90;;;;;;6047637;23;20463;-75
2022/01/29 01:03:58;;;;;;;34.00;13.32;;;7.40;99.90;;;;;;6089984;23;20014;-75
2022/01/29 01:06:24;;;;;;;30.27;13.07;;;7.40;99.90;;;;;;6047900;23;20093;-75
2022/01/29 01:08:50;;;;;;;32.95;13.02;;;7.80;99.90;;;;;;6071995;23;20014;-75
2022/01/29 01:11:17;;;;;;;33.70;14.48;;;8.10;99.90;;;;;;6048092;23;20040;-75
2022/01/29 01:13:45;;;;;;;36.20;14.18;;;7.40;99.90;;;;;;6072014;23;20021;-75
2022/01/29 01:16:11;;;;;;;39.47;14.23;;;7.40;99.90;;;;;;6095814;23;20077;-75
2022/01/29 01:18:37;;;;;;;38.50;14.90;;;7.40;99.90;;;;;;6072438;23;20018;-75
2022/01/29 01:21:03;;;;;;;33.47;14.07;;;8.00;99.90;;;;;;6094305;23;20310;-75
2022/01/29 01:23:28;;;;;;;35.45;15.35;;;7.90;99.90;;;;;;6071695;23;20393;-75
2022/01/29 01:25:54;;;;;;;38.70;15.23;;;8.40;99.90;;;;;;6095787;23;20033;-74
2022/01/29 01:28:23;;;;;;;34.10;14.30;;;7.00;99.90;;;;;;6071512;23;20021;-75
2022/01/29 01:30:50;;;;;;;45.53;14.05;;;7.50;99.90;;;;;;6096905;23;20019;-75
2022/01/29 01:33:16;;;;;;;31.52;14.75;;;7.50;99.90;;;;;;6048063;23;20014;-74
2022/01/29 01:35:47;;;;;;;38.95;14.88;;;7.50;99.90;;;;;;6071408;23;20057;-75
2022/01/29 01:40:42;;;;;;;45.53;16.05;;;7.60;99.90;;;;;;6095399;23;20579;-74
2022/01/29 01:43:08;;;;;;;42.60;15.60;;;7.60;99.90;;;;;;6097092;23;20043;-74
2022/01/29 01:45:37;;;;;;;40.90;15.23;;;7.60;99.90;;;;;;6071696;23;20018;-74
2022/01/29 01:48:05;;;;;;;45.65;16.15;;;7.60;99.90;;;;;;6071550;23;20033;-75
2022/01/29 01:50:34;;;;;;;40.38;15.23;;;7.60;99.90;;;;;;6095367;23;20025;-74
2022/01/29 01:53:01;;;;;;;41.28;15.55;;;7.60;99.90;;;;;;6095165;23;20089;-74
2022/01/29 01:55:27;;;;;;;42.95;15.95;;;7.60;99.90;;;;;;6071210;23;20026;-75
2022/01/29 01:57:53;;;;;;;37.75;15.65;;;7.60;99.90;;;;;;6095353;23;20341;-75
2022/01/29 02:00:19;;;;;;;45.78;16.10;;;7.70;99.90;;;;;;6071457;23;20014;-75
2022/01/29 02:02:45;;;;;;;43.90;16.60;;;7.70;99.90;;;;;;6095443;23;20033;-75
2022/01/29 02:05:11;;;;;;;38.55;15.98;;;7.70;99.90;;;;;;6095555;23;20018;-75
2022/01/29 02:07:37;;;;;;;43.33;15.68;;;7.70;99.90;;;;;;6095248;23;20440;-75
2022/01/29 02:10:08;;;;;;;43.97;15.35;;;7.70;99.90;;;;;;6096727;23;20011;-75
2022/01/29 02:12:56;;;;;;;39.10;14.43;;;7.70;99.90;;;;;;6071252;23;20089;-75
2022/01/29 02:15:28;;;;;;;33.88;14.88;;;7.80;99.90;;;;;;6072081;23;20337;-75
2022/01/29 02:17:54;;;;;;;50.35;15.52;;;7.70;99.90;;;;;;6047879;23;20579;-75
2022/01/29 02:20:29;;;;;;;39.25;15.00;;;8.00;99.90;;;;;;6095484;23;20014;-76
2022/01/29 02:22:55;;;;;;;41.30;15.00;;;7.70;99.90;;;;;;6095334;23;20018;-75
2022/01/29 02:25:45;;;;;;;42.92;15.20;;;7.80;99.90;;;;;;6095132;23;20349;-76
2022/01/29 02:28:16;;;;;;;36.72;14.23;;;7.80;99.90;;;;;;6071527;23;20051;-76
2022/01/29 02:30:46;;;;;;;31.88;14.20;;;7.80;99.90;;;;;;6071192;23;20025;-76
2022/01/29 02:33:15;;;;;;;39.90;14.07;;;7.80;99.90;;;;;;6094953;23;20015;-76
2022/01/29 02:35:46;;;;;;;34.88;14.05;;;7.80;99.90;;;;;;6070931;23;20326;-76
2022/01/29 02:38:15;;;;;;;38.85;14.38;;;7.80;99.90;;;;;;6094959;23;20018;-77
2022/01/29 02:40:48;;;;;;;32.38;13.93;;;7.40;99.90;;;;;;6094591;23;20019;-76
2022/01/29 02:43:14;;;;;;;33.38;13.85;;;7.80;99.90;;;;;;6094901;23;20041;-76
2022/01/29 02:45:44;;;;;;;41.72;14.45;;;7.80;99.90;;;;;;6095080;23;20437;-76
2022/01/29 02:48:13;;;;;;;38.13;14.38;;;7.90;99.90;;;;;;6094960;23;20014;-76
2022/01/29 02:50:41;;;;;;;38.15;14.02;;;7.90;99.90;;;;;;6095569;23;20361;-76
2022/01/29 02:53:08;;;;;;;39.25;14.38;;;7.90;99.90;;;;;;6023453;23;20038;-76
2022/01/29 02:55:37;;;;;;;33.20;14.13;;;7.90;99.90;;;;;;6070903;23;20025;-76
2022/01/29 02:58:03;;;;;;;42.38;15.45;;;7.90;99.90;;;;;;6070252;23;20014;-76
2022/01/29 03:00:32;;;;;;;37.20;13.98;;;7.90;99.90;;;;;;6094659;23;20081;-76
2022/01/29 03:03:01;;;;;;;36.50;14.18;;;7.90;99.90;;;;;;6094866;23;20018;-76
2022/01/29 03:05:27;;;;;;;31.65;14.30;;;7.90;99.90;;;;;;6094752;23;20011;-76
2022/01/29 03:07:53;;;;;;;43.60;15.20;;;8.00;99.90;;;;;;6046701;23;20097;-76
2022/01/29 03:10:22;;;;;;;39.10;14.88;;;8.00;99.90;;;;;;6023168;23;20074;-76
2022/01/29 03:12:48;;;;;;;33.08;15.32;;;8.00;99.90;;;;;;6070685;23;20014;-76
2022/01/29 03:15:14;;;;;;;34.25;14.27;;;8.00;99.90;;;;;;6094205;23;20014;-76
2022/01/29 03:17:41;;;;;;;34.65;14.38;;;8.00;99.90;;;;;;6094730;23;20049;-76
2022/01/29 03:20:08;;;;;;;36.17;14.80;;;8.10;99.90;;;;;;6071072;23;20014;-76
2022/01/29 03:22:34;;;;;;;41.75;15.30;;;8.10;99.90;;;;;;6094708;23;20011;-76
2022/01/29 03:25:03;;;;;;;39.75;14.50;;;8.10;99.90;;;;;;6046475;23;20093;-76
2022/01/29 03:27:29;;;;;;;28.92;13.60;;;8.30;99.90;;;;;;6070535;23;20504;-76
2022/01/29 03:29:55;;;;;;;36.72;14.57;;;8.10;99.90;;;;;;6070678;23;20033;-75
2022/01/29 03:32:20;;;;;;;37.67;15.88;;;8.10;99.90;;;;;;6046227;23;20018;-76
2022/01/29 03:34:46;;;;;;;38.15;15.25;;;8.10;99.90;;;;;;6046378;23;20026;-76
2022/01/29 03:37:12;;;;;;;31.58;14.48;;;8.40;99.90;;;;;;6094671;23;20081;-76
2022/01/29 03:39:38;;;;;;;38.33;14.65;;;8.20;99.90;;;;;;6046862;23;20480;-75
2022/01/29 03:42:08;;;;;;;33.53;14.38;;;8.20;99.90;;;;;;6047229;23;20070;-76
2022/01/29 03:44:34;;;;;;;36.42;15.50;;;8.20;99.90;;;;;;6094743;23;20017;-75
2022/01/29 03:47:02;;;;;;;35.55;14.90;;;8.20;99.90;;;;;;6094674;23;20011;-75
2022/01/29 03:49:28;;;;;;;35.00;15.25;;;8.20;99.90;;;;;;6094053;23;20065;-75
2022/01/29 03:51:54;;;;;;;33.03;15.05;;;8.20;99.90;;;;;;6094579;23;20019;-76
2022/01/29 03:54:20;;;;;;;33.58;14.65;;;8.20;99.90;;;;;;6095113;23;20077;-76
2022/01/29 03:56:46;;;;;;;28.60;14.73;;;8.50;99.90;;;;;;6048678;23;20445;-76
2022/01/29 03:59:11;;;;;;;34.78;14.60;;;8.20;99.90;;;;;;6072213;23;20015;-75
2022/01/29 04:01:37;;;;;;;38.08;14.45;;;8.20;99.90;;;;;;6072781;23;20019;-75
2022/01/29 04:04:03;;;;;;;35.05;14.20;;;8.30;99.90;;;;;;6048335;23;20468;-75
2022/01/29 04:06:30;;;;;;;32.63;14.60;;;8.30;99.90;;;;;;6024412;23;20017;-76
2022/01/29 04:08:57;;;;;;;31.58;13.63;;;8.40;99.90;;;;;;6048652;23;20015;-76
2022/01/29 04:11:23;;;;;;;30.85;14.68;;;8.30;99.90;;;;;;6096619;23;20026;-75
2022/01/29 04:13:49;;;;;;;36.03;14.80;;;8.80;99.90;;;;;;6048763;23;20018;-75
2022/01/29 04:16:17;;;;;;;37.90;15.05;;;7.80;99.90;;;;;;6048727;23;20015;-75
2022/01/29 04:18:43;;;;;;;32.55;14.85;;;8.30;99.90;;;;;;6096321;23;20014;-75
2022/01/29 04:21:09;;;;;;;36.33;14.88;;;8.50;99.90;;;;;;6096249;23;20326;-75
2022/01/29 04:23:35;;;;;;;34.50;14.38;;;8.30;99.90;;;;;;6072287;23;20069;-82
2022/01/29 04:26:03;;;;;;;36.85;15.02;;;8.30;99.90;;;;;;6072398;23;20085;-81
2022/01/29 04:28:33;;;;;;;29.75;15.68;;;8.40;99.90;;;;;;6071898;23;20077;-81
2022/01/29 04:31:05;;;;;;;37.85;15.77;;;8.20;99.90;;;;;;6049629;23;20445;-81
2022/01/29 04:33:31;;;;;;;31.27;14.65;;;8.40;99.90;;;;;;6072415;23;20026;-81
2022/01/29 04:36:04;;;;;;;33.25;15.10;;;8.30;99.90;;;;;;6096174;23;20034;-81
2022/01/29 04:38:33;;;;;;;27.63;14.90;;;8.40;99.90;;;;;;6096249;23;20018;-81
2022/01/29 04:41:04;;;;;;;34.83;15.80;;;8.40;99.90;;;;;;6071657;23;20021;-81
2022/01/29 04:43:35;;;;;;;32.88;16.35;;;8.30;99.90;;;;;;6072769;23;20025;-81
2022/01/29 04:46:02;;;;;;;33.10;15.40;;;8.10;99.90;;;;;;6072290;23;20025;-82
2022/01/29 04:48:28;;;;;;;34.58;15.80;;;8.40;99.90;;;;;;6096341;23;20015;-81
2022/01/29 04:50:54;;;;;;;36.95;15.43;;;8.50;99.90;;;;;;6072523;23;20014;-81
2022/01/29 04:53:20;;;;;;;32.28;15.32;;;8.40;99.90;;;;;;6072164;23;20441;-81
2022/01/29 04:55:46;;;;;;;27.83;14.90;;;8.50;99.90;;;;;;6096021;23;20074;-81
2022/01/29 04:58:12;;;;;;;32.38;15.43;;;8.40;99.90;;;;;;6071573;23;20109;-81
2022/01/29 05:00:38;;;;;;;32.78;15.10;;;8.50;99.90;;;;;;6071800;23;20069;-81
2022/01/29 05:03:12;;;;;;;32.00;14.98;;;8.50;99.90;;;;;;6048181;23;20011;-81
2022/01/29 05:05:39;;;;;;;30.30;14.75;;;8.50;99.90;;;;;;6095785;23;20015;-81
2022/01/29 05:08:08;;;;;;;29.15;15.13;;;8.50;99.90;;;;;;6095768;23;20073;-81
2022/01/29 05:10:37;;;;;;;30.98;14.45;;;8.60;99.90;;;;;;6072066;23;20524;-81
2022/01/29 05:28:59;;;;;;;31.80;15.80;;;8.60;99.90;;;;;;6075331;23;20018;-81
2022/01/29 05:31:25;;;;;;;33.80;14.70;;;8.60;99.90;;;;;;6095665;23;20057;-81
2022/01/29 05:33:50;;;;;;;32.63;15.18;;;8.60;99.90;;;;;;6047342;23;20026;-80
2022/01/29 05:36:16;;;;;;;35.38;14.50;;;8.70;99.90;;;;;;6024520;23;20018;-81
2022/01/29 05:38:43;;;;;;;30.63;15.20;;;8.60;99.90;;;;;;6024201;23;20451;-81
2022/01/29 05:41:09;;;;;;;30.83;16.33;;;8.60;99.90;;;;;;6071791;23;20014;-81
2022/01/29 05:43:34;;;;;;;33.00;15.55;;;8.60;99.90;;;;;;6047582;23;20025;-81
2022/01/29 05:46:00;;;;;;;28.30;14.73;;;8.60;99.90;;;;;;6071495;23;20014;-81
2022/01/29 05:48:28;;;;;;;35.88;15.38;;;8.60;99.90;;;;;;6071012;23;20010;-80
2022/01/29 05:50:57;;;;;;;29.52;14.75;;;8.80;99.90;;;;;;6048636;23;20093;-81
2022/01/29 05:53:23;;;;;;;34.85;16.15;;;8.60;99.90;;;;;;6071735;23;20058;-81
2022/01/29 05:55:49;;;;;;;33.65;15.98;;;8.60;99.90;;;;;;6095527;23;20374;-81
2022/01/29 05:58:15;;;;;;;29.88;15.45;;;8.70;99.90;;;;;;6047644;23;20025;-81
2022/01/29 06:00:40;;;;;;;33.42;14.90;;;8.60;99.90;;;;;;6071397;23;20021;-81
2022/01/29 06:03:08;;;;;;;27.25;15.20;;;8.60;99.90;;;;;;6095484;23;20014;-81
2022/01/29 06:05:35;;;;;;;34.85;15.90;;;8.70;99.90;;;;;;6070969;23;20441;-81
2022/01/29 06:08:01;;;;;;;29.38;15.00;;;8.70;99.90;;;;;;6071454;23;20512;-81
2022/01/29 06:10:28;;;;;;;30.35;15.23;;;8.70;99.90;;;;;;6071538;23;20102;-81
2022/01/29 06:13:03;;;;;;;26.10;15.48;;;8.70;99.90;;;;;;6095294;23;20033;-81
2022/01/29 06:15:39;;;;;;;30.87;15.30;;;8.60;99.90;;;;;;6095271;23;20085;-81
2022/01/29 06:18:05;;;;;;;24.73;14.82;;;8.70;99.90;;;;;;6095120;23;20010;-82
2022/01/29 06:20:32;;;;;;;32.80;14.70;;;8.70;99.90;;;;;;6071265;23;20022;-81
2022/01/29 06:22:58;;;;;;;26.92;14.73;;;8.70;99.90;;;;;;6070823;23;20087;-81
2022/01/29 06:25:24;;;;;;;30.48;14.65;;;8.70;99.90;;;;;;6071150;23;20402;-81
2022/01/29 06:27:56;;;;;;;29.88;14.10;;;8.70;99.90;;;;;;6095084;23;20046;-80
2022/01/29 06:30:22;;;;;;;28.20;14.70;;;8.70;99.90;;;;;;6023715;23;20085;-81
2022/01/29 06:32:48;;;;;;;31.85;14.43;;;8.80;99.90;;;;;;6071166;23;20025;-81
2022/01/29 06:35:16;;;;;;;29.73;14.18;;;8.70;99.90;;;;;;6071087;23;20022;-80
2022/01/29 06:37:42;;;;;;;25.25;13.98;;;8.80;99.90;;;;;;6047351;23;20018;-81
2022/01/29 06:40:12;;;;;;;24.88;14.18;;;8.80;99.90;;;;;;6046820;23;20064;-81
2022/01/29 06:42:38;;;;;;;23.50;13.65;;;8.80;99.90;;;;;;6095161;23;20078;-81
2022/01/29 06:45:05;;;;;;;32.92;14.30;;;8.80;99.90;;;;;;6096737;23;20022;-76
2022/01/29 06:47:31;;;;;;;22.10;13.90;;;8.80;99.90;;;;;;6071398;23;20070;-76
2022/01/29 06:49:57;;;;;;;30.95;13.95;;;8.80;99.90;;;;;;6023868;23;20030;-76
2022/01/29 06:52:23;;;;;;;29.30;13.90;;;8.80;99.90;;;;;;6071124;23;20064;-76
2022/01/29 06:54:49;;;;;;;27.58;14.07;;;8.80;99.90;;;;;;6071003;23;20082;-76
2022/01/29 06:57:18;;;;;;;28.50;14.43;;;9.00;99.90;;;;;;6046657;23;20018;-76
2022/01/29 06:59:44;;;;;;;24.30;14.05;;;8.80;99.90;;;;;;6070931;23;20018;-76
2022/01/29 07:02:12;;;;;;;26.40;13.75;;;8.80;99.90;;;;;;6070765;23;20093;-76
2022/01/29 07:04:38;;;;;;;29.00;13.25;;;8.80;99.90;;;;;;6023566;23;20014;-76
2022/01/29 07:07:04;;;;;;;23.35;13.40;;;9.60;99.90;;;;;;6094871;23;20022;-76
2022/01/29 07:09:30;;;;;;;24.55;14.05;;;8.80;99.90;;;;;;6070838;23;20042;-76
2022/01/29 07:12:06;;;;;;;22.73;13.57;;;8.80;99.90;;;;;;6070584;23;20066;-76
2022/01/29 07:14:41;;;;;;;25.42;13.73;;;8.80;99.90;;;;;;6070340;23;20531;-76
2022/01/29 07:17:17;;;;;;;24.23;13.85;;;8.80;99.90;;;;;;6070887;23;20018;-75
2022/01/29 07:19:46;;;;;;;25.75;13.55;;;8.80;99.90;;;;;;6070934;23;20018;-76
2022/01/29 07:22:21;;;;;;;21.40;12.85;;;8.80;99.90;;;;;;6057009;23;20026;-75
2022/01/29 07:24:47;;;;;;;28.35;13.85;;;8.80;99.90;;;;;;6095000;23;20014;-76
2022/01/29 07:27:16;;;;;;;23.15;13.00;;;8.80;99.90;;;;;;6046538;23;20092;-76
2022/01/29 07:29:45;;;;;;;21.33;12.60;;;8.90;99.90;;;;;;6070225;23;20097;-76
2022/01/29 07:32:11;;;;;;;22.60;12.73;;;8.80;99.90;;;;;;6070798;23;20345;-76
2022/01/29 07:34:37;;;;;;;25.17;14.18;;;8.80;99.90;;;;;;6095833;23;20405;-76
2022/01/29 07:37:04;;;;;;;24.83;13.18;;;8.80;99.90;;;;;;6094820;23;20049;-75
2022/01/29 07:39:35;;;;;;;27.52;13.07;;;8.80;99.90;;;;;;6094596;23;20065;-76
2022/01/29 07:42:01;;;;;;;32.70;13.85;;;8.90;99.90;;;;;;6070972;23;20018;-76
2022/01/29 07:44:30;;;;;;;28.50;12.73;;;8.80;99.90;;;;;;6047228;23;20433;-76
2022/01/29 07:46:55;;;;;;;27.30;12.77;;;8.90;99.90;;;;;;6046571;23;20030;-76
2022/01/29 07:49:21;;;;;;;24.17;12.93;;;8.80;99.90;;;;;;6029759;23;20400;-75
2022/01/29 07:51:47;;;;;;;23.90;12.40;;;8.80;99.90;;;;;;6094822;23;20025;-76
2022/01/29 07:54:13;;;;;;;27.60;12.30;;;8.90;99.90;;;;;;6070694;23;20018;-76
2022/01/29 07:56:45;;;;;;;26.38;12.63;;;8.80;99.90;;;;;;6095207;23;20022;-76
2022/01/29 07:59:18;;;;;;;23.95;12.27;;;8.80;99.90;;;;;;6070035;23;20018;-76
2022/01/29 08:01:44;;;;;;;21.85;11.18;;;9.40;99.90;;;;;;6070300;23;20318;-76
2022/01/29 08:04:15;;;;;;;27.60;11.93;;;8.80;99.90;;;;;;6047142;23;20021;-76
2022/01/29 08:06:41;;;;;;;25.23;11.93;;;8.80;99.90;;;;;;6094740;23;20017;-76
2022/01/29 08:09:08;;;;;;;22.88;11.60;;;8.90;99.90;;;;;;6094735;23;20449;-76
2022/01/29 08:11:37;;;;;;;26.05;11.20;;;8.90;99.90;;;;;;6070621;23;20019;-76
2022/01/29 08:14:03;;;;;;;21.95;11.15;;;8.80;99.90;;;;;;6094593;23;20021;-76
2022/01/29 08:16:29;;;;;;;25.90;10.77;;;8.80;99.90;;;;;;6023289;23;20345;-76
2022/01/29 08:18:54;;;;;;;23.92;10.75;;;8.90;99.90;;;;;;6046381;23;20022;-76
2022/01/29 08:21:20;;;;;;;22.98;10.30;;;8.90;99.90;;;;;;6094612;23;20093;-76
2022/01/29 08:23:46;;;;;;;21.38;10.25;;;8.90;99.90;;;;;;6070488;23;20014;-77
2022/01/29 08:26:13;;;;;;;21.40;9.82;;;9.10;99.90;;;;;;6070582;23;20341;-77
2022/01/29 08:28:42;;;;;;;20.58;9.80;;;9.00;99.90;;;;;;6070383;23;20018;-75
2022/01/29 08:31:08;;;;;;;20.95;9.23;;;9.20;99.90;;;;;;6094690;23;20078;-75
2022/01/29 08:33:34;;;;;;;22.20;9.25;;;9.90;99.90;;;;;;6070749;23;20022;-81
2022/01/29 08:36:08;;;;;;;15.93;8.65;;;9.30;99.90;;;;;;6095545;23;20018;-76
2022/01/29 08:38:34;;;;;;;17.88;8.15;;;9.00;99.90;;;;;;6096113;23;20093;-76
2022/01/29 08:41:03;;;;;;;18.83;8.90;;;9.10;99.90;;;;;;6095214;23;20090;-81
2022/01/29 08:43:35;;;;;;;23.35;8.60;;;9.10;99.90;;;;;;6096230;23;20033;-81
2022/01/29 08:46:02;;;;;;;22.67;8.38;;;9.10;99.90;;;;;;6072281;23;20027;-81
2022/01/29 08:48:28;;;;;;;16.85;8.50;;;9.10;99.90;;;;;;6096248;23;20341;-81
2022/01/29 08:50:54;;;;;;;16.20;8.20;;;9.20;99.90;;;;;;6048442;23;20014;-81
2022/01/29 08:53:20;;;;;;;16.33;7.50;;;9.20;99.90;;;;;;6071757;23;20018;-81
2022/01/29 08:55:46;;;;;;;16.15;7.60;;;9.30;99.90;;;;;;6048239;23;20381;-81
2022/01/29 08:58:13;;;;;;;17.00;7.10;;;9.30;99.90;;;;;;6096075;23;20056;-80
2022/01/29 09:00:42;;;;;;;17.60;7.18;;;9.30;99.90;;;;;;6095859;23;20056;-80
2022/01/29 09:03:08;;;;;;;20.08;7.13;;;9.30;99.90;;;;;;6072074;23;20018;-80
2022/01/29 09:05:34;;;;;;;16.20;6.13;;;9.30;99.90;;;;;;6096129;23;20237;-81
2022/01/29 09:08:02;;;;;;;16.38;6.28;;;9.40;99.90;;;;;;6072117;23;20066;-80
2022/01/29 09:10:30;;;;;;;17.30;6.40;;;9.40;99.90;;;;;;6071449;23;20345;-81
2022/01/29 09:12:55;;;;;;;16.77;6.72;;;9.40;99.90;;;;;;6095717;23;20014;-81
2022/01/29 09:15:24;;;;;;;20.35;6.68;;;9.40;99.90;;;;;;6071915;23;20046;-77
2022/01/29 09:17:50;;;;;;;14.82;5.55;;;9.40;99.90;;;;;;6071995;23;20050;-80
2022/01/29 09:20:23;;;;;;;16.50;5.78;;;9.40;99.90;;;;;;6047856;23;20011;-78
2022/01/29 09:22:49;;;;;;;15.52;5.70;;;9.50;99.90;;;;;;6097222;23;20433;-78
2022/01/29 09:25:15;;;;;;;15.00;6.10;;;9.50;99.90;;;;;;6093910;23;20010;-78
2022/01/29 09:27:46;;;;;;;16.58;5.60;;;9.60;99.90;;;;;;6095350;23;20019;-77
2022/01/29 09:30:12;;;;;;;12.88;5.32;;;9.40;99.90;;;;;;6095794;23;20373;-76
2022/01/29 09:32:38;;;;;;;14.32;5.25;;;9.50;99.90;;;;;;6095888;23;20014;-80
2022/01/29 09:35:05;;;;;;;14.05;5.20;;;9.50;99.90;;;;;;6095688;23;20517;-76
2022/01/29 09:37:34;;;;;;;11.98;4.95;;;9.60;99.90;;;;;;6096110;23;20019;-77
2022/01/29 09:40:00;;;;;;;13.85;4.78;;;9.50;99.90;;;;;;6095767;23;20014;-78
2022/01/29 09:42:50;;;;;;;14.80;4.93;;;9.50;99.90;;;;;;6095504;23;20097;-77
2022/01/29 09:45:19;;;;;;;12.77;4.78;;;9.50;99.90;;;;;;6071788;23;20325;-77
2022/01/29 09:48:01;;;;;;;14.50;4.72;;;9.80;99.90;;;;;;6093560;23;20018;-79
2022/01/29 09:50:35;;;;;;;12.35;5.00;;;9.60;99.90;;;;;;6071379;23;20336;-79
2022/01/29 09:53:37;;;;;;;11.27;4.70;;;10.00;99.90;;;;;;6071883;23;20488;-79
2022/01/29 09:56:04;;;;;;;11.07;3.97;;;9.60;99.90;;;;;;6071411;23;20018;-79
2022/01/29 09:58:35;;;;;;;10.93;4.15;;;9.60;99.90;;;;;;6096937;23;20070;-79
2022/01/29 10:01:24;;;;;;;13.25;4.65;;;9.60;99.90;;;;;;6094906;23;20053;-81
2022/01/29 10:04:06;;;;;;;10.10;3.88;;;9.70;99.90;;;;;;6084951;23;20461;-79
2022/01/29 10:10:22;;;;;;;15.63;4.00;;;9.80;99.90;;;;;;6050029;23;20019;-81
2022/01/29 10:12:48;;;;;;;10.20;3.33;;;9.80;99.90;;;;;;5989742;23;20110;-80
2022/01/29 10:15:13;;;;;;;10.18;3.63;;;9.70;99.90;;;;;;5989642;23;20050;-81
2022/01/29 10:17:46;;;;;;;11.65;3.60;;;9.80;99.90;;;;;;5989665;23;20098;-81
2022/01/29 10:20:26;;;;;;;11.95;3.05;;;9.80;99.90;;;;;;6000401;23;20015;-80
2022/01/29 10:22:57;;;;;;;11.98;3.38;;;9.80;99.90;;;;;;6071463;23;20984;-80
2022/01/29 10:25:28;;;;;;;10.30;3.65;;;9.80;99.90;;;;;;6070908;23;20372;-76
2022/01/29 10:28:06;;;;;;;16.90;3.20;;;9.80;99.90;;;;;;6071358;23;20019;-76
2022/01/29 10:30:56;;;;;;;8.88;2.97;;;9.90;99.90;;;;;;6095068;23;20417;-76
2022/01/29 10:33:25;;;;;;;10.50;3.05;;;9.70;99.90;;;;;;6070502;23;20054;-75
2022/01/29 10:35:54;;;;;;;12.10;2.95;;;9.90;99.90;;;;;;6094996;23;20117;-77
2022/01/29 10:38:25;;;;;;;12.27;2.90;;;10.00;99.90;;;;;;6095079;23;20154;-76
2022/01/29 10:41:23;;;;;;;10.70;2.85;;;9.90;99.90;;;;;;6095142;23;20018;-76
2022/01/29 10:44:16;;;;;;;12.40;3.03;;;10.00;99.90;;;;;;6095112;23;20019;-77
2022/01/29 10:46:53;;;;;;;11.70;3.35;;;10.00;99.90;;;;;;6071293;23;20018;-77
2022/01/29 10:49:34;;;;;;;14.27;2.97;;;10.10;99.90;;;;;;6096669;23;20127;-86
2022/01/29 10:52:17;;;;;;;14.88;2.80;;;10.10;99.90;;;;;;6072280;23;20429;-91
2022/01/29 10:54:51;;;;;;;15.27;3.00;;;10.10;99.90;;;;;;6070428;23;20456;-85
2022/01/29 10:57:18;;;;;;;9.45;2.90;;;10.10;99.90;;;;;;6071101;23;20018;-75
2022/01/29 11:00:21;;;;;;;13.45;2.90;;;9.90;99.90;;;;;;6095201;23;20101;-78
2022/01/29 11:02:53;;;;;;;16.80;2.88;;;10.10;99.90;;;;;;6095776;23;20022;-87
2022/01/29 11:05:29;;;;;;;12.00;2.42;;;10.00;99.90;;;;;;6094143;23;20010;-77
2022/01/29 11:08:01;;;;;;;7.82;2.20;;;10.10;99.90;;;;;;6070796;23;20014;-78
2022/01/29 11:10:26;;;;;;;10.77;2.78;;;10.10;99.90;;;;;;6094671;23;20010;-79
2022/01/29 11:12:53;;;;;;;16.20;2.80;;;10.10;99.90;;;;;;6070988;23;20322;-78
2022/01/29 11:15:23;;;;;;;11.55;2.78;;;10.20;99.90;;;;;;6094706;23;20022;-78
2022/01/29 11:17:59;;;;;;;12.50;2.95;;;10.20;99.90;;;;;;6045284;23;20089;-89
2022/01/29 11:24:34;;;;;;;9.30;2.58;;;10.20;99.90;;;;;;6069739;23;20341;-84
2022/01/29 11:27:02;;;;;;;7.97;2.50;;;10.20;99.90;;;;;;6056022;23;20018;-84
2022/01/29 11:29:36;;;;;;;13.25;2.92;;;10.20;99.90;;;;;;6094996;23;20057;-85
2022/01/29 11:32:20;;;;;;;10.68;2.72;;;10.20;99.90;;;;;;6072403;23;20018;-94
2022/01/29 11:35:09;;;;;;;13.88;2.50;;;10.30;99.90;;;;;;6096736;23;20105;-90
2022/01/29 11:37:44;;;;;;;8.45;2.50;;;10.30;99.90;;;;;;6056169;23;20057;-85
2022/01/29 11:40:36;;;;;;;9.98;2.80;;;10.30;99.90;;;;;;6094129;23;20029;-81
2022/01/29 11:43:07;;;;;;;12.15;2.58;;;10.30;99.90;;;;;;6096554;23;20023;-83
2022/01/29 11:46:15;;;;;;;12.13;2.70;;;10.30;99.90;;;;;;6095511;23;20018;-83
2022/01/29 11:52:54;;;;;;;12.50;2.30;;;10.30;99.90;;;;;;6057445;23;20094;-84
2022/01/29 11:55:47;;;;;;;12.30;2.63;;;10.50;99.90;;;;;;6070481;23;20014;-82
2022/01/29 11:58:15;;;;;;;8.82;2.67;;;10.40;99.90;;;;;;6071239;23;20024;-86
2022/01/29 12:00:42;;;;;;;12.63;2.70;;;10.40;99.90;;;;;;6097372;23;20018;-86
2022/01/29 12:03:38;;;;;;;13.68;2.58;;;10.50;99.90;;;;;;6095784;23;20010;-87
2022/01/29 12:06:22;;;;;;;9.23;2.10;;;10.50;99.90;;;;;;6071634;23;20433;-87
2022/01/29 12:09:03;;;;;;;12.15;2.50;;;10.50;99.90;;;;;;6097405;23;20014;-76
2022/01/29 12:11:29;;;;;;;14.73;2.33;;;10.90;99.90;;;;;;6095450;23;20073;-86
2022/01/29 12:14:13;;;;;;;7.93;2.13;;;10.60;99.90;;;;;;6097233;23;20089;-88
2022/01/29 12:16:58;;;;;;;8.00;2.10;;;10.60;99.90;;;;;;6096643;23;20018;-87
2022/01/29 12:19:44;;;;;;;9.85;1.95;;;10.60;99.90;;;;;;6099182;23;20021;-86
2022/01/29 12:22:21;;;;;;;11.70;2.28;;;10.70;99.90;;;;;;6097093;23;20015;-86
2022/01/29 12:24:59;;;;;;;13.00;2.17;;;10.90;99.90;;;;;;6099451;23;20015;-86
2022/01/29 12:28:04;;;;;;;12.30;2.42;;;10.80;99.90;;;;;;6076108;23;20042;-84
2022/01/29 12:30:32;;;;;;;12.23;2.25;;;10.80;99.90;;;;;;6073126;23;20022;-88
2022/01/29 12:33:02;;;;;;;17.27;2.83;;;10.80;99.90;;;;;;6098332;23;20441;-87
2022/01/29 12:35:49;;;;;;;10.93;3.22;;;10.90;99.90;;;;;;6098923;23;20101;-87
2022/01/29 12:38:27;;;;;;;12.35;2.70;;;10.90;99.90;;;;;;6098783;23;20018;-88
2022/01/29 12:41:07;;;;;;;9.13;1.98;;;10.90;99.90;;;;;;6072511;23;20037;-86
2022/01/29 12:43:58;;;;;;;10.52;2.53;;;10.90;99.90;;;;;;6076002;23;20109;-84
2022/01/29 12:46:31;;;;;;;10.93;2.28;;;10.90;99.90;;;;;;6073635;23;20014;-86
2022/01/29 12:49:25;;;;;;;11.10;2.58;;;10.70;99.90;;;;;;6073358;23;20441;-89
2022/01/29 12:51:58;;;;;;;11.27;2.45;;;10.90;99.90;;;;;;6097490;23;20018;-88
2022/01/29 12:54:55;;;;;;;10.48;2.13;;;10.90;99.90;;;;;;6076132;23;20030;-93
2022/01/29 13:00:45;;;;;;;12.05;2.72;;;11.00;99.90;;;;;;6003505;23;20051;-82
2022/01/29 13:03:13;;;;;;;12.40;2.88;;;11.00;99.90;;;;;;6075562;23;20015;-81
2022/01/29 13:06:20;;;;;;;12.38;3.17;;;11.00;99.90;;;;;;6077564;23;20018;-82
2022/01/29 13:08:46;;;;;;;15.40;2.88;;;10.80;99.90;;;;;;6056999;23;20015;-89
2022/01/29 13:11:33;;;;;;;16.85;2.85;;;11.00;99.90;;;;;;6091849;23;20057;-93
2022/01/29 13:14:10;;;;;;;9.82;2.67;;;11.00;99.90;;;;;;6058854;23;20014;-85
2022/01/29 13:16:44;;;;;;;7.80;2.13;;;11.00;99.90;;;;;;6102993;23;20073;-86
2022/01/29 13:19:10;;;;;;;16.58;2.72;;;11.30;99.90;;;;;;6103905;23;20018;-85
2022/01/29 13:21:39;;;;;;;12.43;2.50;;;11.10;99.90;;;;;;6105799;23;20176;-85
2022/01/29 13:27:37;;;;;;;12.50;2.70;;;11.40;99.90;;;;;;6101793;23;20019;-84
2022/01/29 13:30:11;;;;;;;12.73;2.33;;;11.20;99.90;;;;;;6105822;23;20067;-87